createdAt,value
2023-03-06T00:02:52.151Z,3.08
2023-03-06T00:06:17.799Z,3.00
2023-03-06T00:09:41.249Z,2.70
2023-03-06T00:13:08.117Z,2.25
2023-03-06T00:16:32.129Z,5.70
2023-03-06T00:19:57.622Z,2.45
2023-03-06T00:23:23.648Z,1.92
2023-03-06T00:26:46.815Z,2.17
2023-03-06T00:30:13.563Z,2.22
2023-03-06T00:33:37.594Z,3.45
2023-03-06T00:37:00.816Z,1.10
2023-03-06T00:40:25.927Z,3.60
2023-03-06T00:43:48.781Z,2.08
2023-03-06T00:47:13.074Z,2.60
2023-03-06T00:50:37.402Z,3.17
2023-03-06T00:54:00.837Z,3.90
2023-03-06T00:57:25.123Z,1.15
2023-03-06T01:00:49.224Z,0.60
2023-03-06T01:04:12.684Z,1.20
2023-03-06T01:07:37.791Z,2.53
2023-03-06T01:11:01.978Z,2.20
2023-03-06T01:14:27.191Z,1.08
2023-03-06T01:17:54.143Z,0.93
2023-03-06T01:21:16.896Z,3.47
2023-03-06T01:24:41.264Z,4.60
2023-03-06T01:28:04.876Z,3.47
2023-03-06T01:31:30.735Z,8.52
2023-03-06T01:34:57.267Z,12.10
2023-03-06T01:38:22.144Z,6.18
2023-03-06T01:41:46.129Z,4.78
2023-03-06T01:45:49.437Z,1.70
2023-03-06T01:49:23.872Z,3.03
2023-03-06T01:52:51.744Z,2.13
2023-03-06T01:56:17.878Z,2.03
2023-03-06T01:59:45.853Z,2.25
2023-03-06T02:03:13.324Z,1.65
2023-03-06T02:06:43.250Z,1.40
2023-03-06T02:10:09.172Z,0.73
2023-03-06T02:13:32.988Z,1.55
2023-03-06T02:16:57.897Z,1.63
2023-03-06T02:20:28.807Z,2.28
2023-03-06T02:24:04.977Z,2.05
2023-03-06T02:27:30.805Z,0.65
2023-03-06T02:30:56.994Z,0.85
2023-03-06T02:34:51.058Z,1.08
2023-03-06T02:38:19.826Z,5.13
2023-03-06T02:41:43.091Z,1.45
2023-03-06T02:45:12.074Z,1.25
2023-03-06T02:48:35.971Z,3.13
2023-03-06T02:52:00.154Z,5.38
2023-03-06T02:55:24.038Z,2.85
2023-03-06T02:58:47.103Z,2.38
2023-03-06T03:02:13.027Z,1.08
2023-03-06T03:05:38.764Z,1.77
2023-03-06T03:09:02.223Z,3.47
2023-03-06T03:12:25.804Z,2.97
2023-03-06T03:16:01.081Z,1.77
2023-03-06T03:19:26.092Z,1.38
2023-03-06T03:22:55.478Z,2.40
2023-03-06T03:26:21.910Z,2.67
2023-03-06T03:29:44.869Z,1.38
2023-03-06T03:33:08.649Z,0.77
2023-03-06T03:36:33.969Z,1.20
2023-03-06T03:39:57.117Z,3.70
2023-03-06T03:43:21.122Z,11.73
2023-03-06T03:46:45.245Z,7.32
2023-03-06T03:50:10.725Z,6.15
2023-03-06T03:53:36.244Z,33.28
2023-03-06T03:56:59.912Z,18.60
2023-03-06T04:00:24.126Z,16.45
2023-03-06T04:03:47.779Z,6.97
2023-03-06T04:07:11.968Z,7.00
2023-03-06T04:10:37.694Z,3.03
2023-03-06T04:14:01.378Z,1.13
2023-03-06T04:17:25.356Z,3.20
2023-03-06T04:20:50.794Z,2.13
2023-03-06T04:24:15.070Z,6.65
2023-03-06T04:27:41.200Z,5.65
2023-03-06T04:31:04.544Z,3.72
2023-03-06T04:34:28.763Z,4.25
2023-03-06T04:37:52.178Z,24.50
2023-03-06T04:41:15.165Z,11.75
2023-03-06T04:44:41.021Z,15.57
2023-03-06T04:48:06.068Z,16.95
2023-03-06T04:51:30.169Z,15.55
2023-03-06T04:54:54.430Z,12.23
2023-03-06T04:58:17.976Z,19.40
2023-03-06T05:01:43.093Z,17.30
2023-03-06T05:05:07.885Z,24.83
2023-03-06T05:08:31.061Z,22.40
2023-03-06T05:11:54.114Z,42.83
2023-03-06T05:15:19.325Z,30.30
2023-03-06T05:18:44.946Z,19.92
2023-03-06T05:22:08.727Z,27.60
2023-03-06T05:25:32.717Z,18.98
2023-03-06T05:28:56.810Z,32.47
2023-03-06T05:32:20.833Z,18.20
2023-03-06T05:35:51.036Z,13.27
2023-03-06T05:39:15.496Z,6.80
2023-03-06T05:42:39.497Z,7.82
2023-03-06T05:46:05.150Z,7.93
2023-03-06T05:49:29.818Z,9.73
2023-03-06T05:52:56.187Z,26.67
2023-03-06T05:56:20.448Z,23.30
2023-03-06T05:59:46.337Z,6.15
2023-03-06T06:03:10.707Z,3.38
2023-03-06T06:06:35.158Z,19.13
2023-03-06T06:10:03.537Z,7.20
2023-03-06T06:13:28.964Z,5.65
2023-03-06T06:16:53.355Z,6.55
2023-03-06T06:20:18.512Z,6.35
2023-03-06T06:23:43.084Z,8.77
2023-03-06T06:27:09.308Z,13.32
2023-03-06T06:30:34.315Z,8.15
2023-03-06T06:33:58.090Z,3.80
2023-03-06T06:37:22.210Z,3.72
2023-03-06T06:41:04.244Z,3.10
2023-03-06T06:44:32.551Z,1.92
2023-03-06T06:47:55.657Z,7.35
2023-03-06T06:51:19.106Z,14.07
2023-03-06T06:54:42.273Z,6.18
2023-03-06T06:58:06.271Z,2.85
2023-03-06T07:01:32.109Z,4.28
2023-03-06T07:05:04.064Z,4.88
2023-03-06T07:08:27.113Z,12.45
2023-03-06T07:11:51.296Z,4.78
2023-03-06T07:15:16.292Z,5.43
2023-03-06T07:18:41.938Z,4.55
2023-03-06T07:22:06.022Z,12.25
2023-03-06T07:25:30.312Z,83.65
2023-03-06T07:28:55.278Z,19.80
2023-03-06T07:32:18.936Z,32.03
2023-03-06T07:35:44.032Z,10.98
2023-03-06T07:39:07.791Z,6.18
2023-03-06T07:42:31.154Z,6.10
2023-03-06T07:45:59.441Z,7.93
2023-03-06T07:49:22.917Z,4.57
2023-03-06T07:52:48.327Z,3.10
2023-03-06T07:56:13.333Z,4.45
2023-03-06T07:59:37.437Z,3.65
2023-03-06T08:03:01.293Z,2.75
2023-03-06T08:06:27.055Z,1.60
2023-03-06T08:09:53.066Z,6.47
2023-03-06T08:13:17.146Z,22.10
2023-03-06T08:16:41.227Z,15.50
2023-03-06T08:20:05.323Z,7.65
2023-03-06T08:23:28.363Z,7.75
2023-03-06T08:26:54.312Z,3.33
2023-03-06T08:30:18.498Z,6.50
2023-03-06T08:33:44.019Z,3.30
2023-03-06T08:37:07.103Z,5.40
2023-03-06T08:40:30.961Z,7.00
2023-03-06T08:43:56.173Z,5.57
2023-03-06T08:47:20.259Z,4.35
2023-03-06T08:50:44.859Z,5.03
2023-03-06T08:54:08.344Z,6.97
2023-03-06T08:57:32.388Z,9.55
2023-03-06T09:00:57.377Z,3.83
2023-03-06T09:04:21.625Z,4.60
2023-03-06T09:07:45.401Z,1.95
2023-03-06T09:11:11.395Z,3.17
2023-03-06T09:14:35.303Z,5.18
2023-03-06T09:18:00.226Z,3.85
2023-03-06T09:21:25.643Z,2.58
2023-03-06T09:24:49.409Z,3.55
2023-03-06T09:28:14.625Z,6.57
2023-03-06T09:31:37.994Z,4.75
2023-03-06T09:35:04.421Z,5.88
2023-03-06T09:38:29.655Z,3.72
2023-03-06T09:41:54.377Z,5.32
2023-03-06T09:45:21.195Z,2.55
2023-03-06T09:48:54.293Z,4.55
2023-03-06T09:52:40.192Z,4.88
2023-03-06T09:56:08.404Z,6.10
2023-03-06T09:59:34.200Z,5.95
2023-03-06T10:03:06.642Z,4.07
2023-03-06T10:06:33.331Z,5.93
2023-03-06T10:10:02.537Z,11.50
2023-03-06T10:13:30.205Z,10.93
2023-03-06T10:16:53.369Z,12.95
2023-03-06T10:20:24.320Z,9.45
2023-03-06T10:23:56.303Z,6.68
2023-03-06T10:27:32.168Z,5.90
2023-03-06T10:31:04.531Z,5.07
2023-03-06T10:34:35.072Z,6.40
2023-03-06T10:38:07.476Z,5.75
2023-03-06T10:41:32.666Z,6.15
2023-03-06T10:45:10.280Z,5.18
2023-03-06T10:48:36.519Z,15.48
2023-03-06T10:52:03.297Z,7.68
2023-03-06T10:55:31.651Z,6.30
2023-03-06T10:59:08.516Z,5.30
2023-03-06T11:02:37.324Z,7.75
2023-03-06T11:06:12.667Z,4.75
2023-03-06T11:09:35.646Z,7.82
2023-03-06T11:13:01.257Z,5.25
2023-03-06T11:16:31.021Z,2.97
2023-03-06T11:20:18.994Z,6.00
2023-03-06T11:23:46.910Z,7.05
2023-03-06T11:27:25.228Z,8.95
2023-03-06T11:30:52.275Z,3.92
2023-03-06T11:34:23.529Z,4.00
2023-03-06T11:37:55.392Z,2.88
2023-03-06T11:41:26.538Z,4.57
2023-03-06T11:45:00.352Z,2.60
2023-03-06T11:48:31.114Z,5.55
2023-03-06T11:51:57.536Z,10.82
2023-03-06T11:55:38.013Z,28.83
2023-03-06T11:59:28.730Z,11.15
2023-03-06T12:03:24.566Z,6.40
2023-03-06T12:06:58.565Z,7.20
2023-03-06T12:10:32.404Z,7.88
2023-03-06T12:14:23.720Z,3.67
2023-03-06T12:18:07.674Z,4.57
2023-03-06T12:21:42.718Z,16.00
2023-03-06T12:25:38.340Z,19.58
2023-03-06T12:29:20.679Z,12.02
2023-03-06T12:32:52.769Z,22.55
2023-03-06T12:36:29.923Z,9.57
2023-03-06T12:40:16.749Z,6.18
2023-03-06T12:44:05.106Z,81.15
2023-03-06T12:47:31.440Z,8.95
2023-03-06T12:50:55.611Z,4.60
2023-03-06T12:54:24.322Z,4.47
2023-03-06T12:57:49.330Z,16.33
2023-03-06T13:01:20.622Z,14.65
2023-03-06T13:05:03.312Z,14.32
2023-03-06T13:08:59.139Z,16.92
2023-03-06T13:12:40.641Z,5.97
2023-03-06T13:16:14.561Z,3.38
2023-03-06T13:19:38.536Z,1.17
2023-03-06T13:23:44.607Z,2.30
2023-03-06T13:27:11.622Z,1.25
2023-03-06T13:30:47.572Z,0.88
2023-03-06T13:34:37.833Z,0.52
2023-03-06T13:38:03.339Z,3.72
2023-03-06T13:41:45.659Z,2.45
2023-03-06T13:45:11.896Z,3.05
2023-03-06T13:48:44.774Z,3.08
2023-03-06T13:52:12.559Z,3.42
2023-03-06T13:55:46.580Z,3.10
2023-03-06T13:59:35.134Z,1.80
2023-03-06T14:03:31.894Z,2.33
2023-03-06T14:07:07.250Z,0.90
2023-03-06T14:10:35.824Z,2.40
2023-03-06T14:14:00.225Z,3.17
2023-03-06T14:17:30.459Z,1.35
2023-03-06T14:20:59.456Z,6.28
2023-03-06T14:24:35.527Z,8.93
2023-03-06T14:28:09.128Z,4.30
2023-03-06T14:31:46.035Z,1.63
2023-03-06T14:40:11.404Z,4.22
2023-03-06T14:51:20.510Z,2.65
2023-03-06T14:54:47.318Z,6.03
2023-03-06T14:58:16.524Z,16.50
2023-03-06T15:01:43.554Z,12.88
2023-03-06T15:05:16.026Z,29.27
2023-03-06T15:08:42.718Z,17.63
2023-03-06T15:12:09.662Z,13.52
2023-03-06T15:15:35.599Z,10.35
2023-03-06T15:19:01.325Z,16.15
2023-03-06T15:22:31.744Z,25.27
2023-03-06T15:26:00.751Z,27.90
2023-03-06T15:29:26.176Z,28.27
2023-03-06T15:32:52.608Z,100.90
2023-03-06T15:36:29.905Z,70.32
2023-03-06T15:40:09.656Z,45.72
2023-03-06T15:43:38.359Z,34.22
2023-03-06T15:47:08.680Z,25.10
2023-03-06T15:50:34.636Z,19.23
2023-03-06T15:54:11.994Z,28.20
2023-03-06T15:57:35.606Z,35.47
2023-03-06T16:01:00.837Z,24.58
2023-03-06T16:04:24.996Z,18.73
2023-03-06T16:07:50.939Z,15.93
2023-03-06T16:11:18.600Z,16.33
2023-03-06T16:14:42.473Z,14.93
2023-03-06T16:22:55.648Z,11.05
2023-03-06T16:29:49.848Z,13.90
2023-03-06T16:33:13.631Z,9.38
2023-03-06T16:36:37.611Z,11.57
2023-03-06T16:40:03.113Z,16.02
2023-03-06T16:43:27.216Z,15.65
2023-03-06T16:46:52.746Z,13.77
2023-03-06T16:50:25.642Z,14.43
2023-03-06T16:53:49.517Z,25.10
2023-03-06T16:57:16.368Z,31.83
2023-03-06T17:00:39.744Z,31.42
2023-03-06T17:04:04.838Z,49.33
2023-03-06T17:07:29.750Z,80.03
2023-03-06T17:10:54.261Z,58.92
2023-03-06T17:14:19.564Z,36.78
2023-03-06T17:17:42.726Z,38.38
2023-03-06T17:21:06.508Z,50.08
2023-03-06T17:24:31.001Z,43.53
2023-03-06T17:27:54.864Z,28.30
2023-03-06T17:31:21.750Z,26.13
2023-03-06T17:34:46.028Z,24.90
2023-03-06T17:38:10.521Z,25.13
2023-03-06T17:41:35.094Z,22.05
2023-03-06T17:44:58.874Z,21.98
2023-03-06T17:48:24.895Z,21.73
2023-03-06T17:51:49.218Z,21.73
2023-03-06T17:55:14.021Z,25.02
2023-03-06T17:58:38.007Z,28.05
2023-03-06T18:02:02.224Z,35.63
2023-03-06T18:05:27.885Z,32.95
2023-03-06T18:08:52.940Z,27.75
2023-03-06T18:12:16.714Z,26.52
2023-03-06T18:15:42.126Z,20.73
2023-03-06T18:19:08.922Z,23.17
2023-03-06T18:22:34.505Z,33.45
2023-03-06T18:26:09.938Z,23.33
2023-03-06T18:29:33.421Z,9.57
2023-03-06T18:32:59.192Z,9.85
2023-03-06T18:36:25.377Z,9.00
2023-03-06T18:39:51.414Z,16.95
2023-03-06T18:43:15.503Z,22.73
2023-03-06T18:46:40.612Z,24.95
2023-03-06T18:50:04.599Z,24.88
2023-03-06T18:53:28.372Z,17.60
2023-03-06T18:56:53.072Z,22.00
2023-03-06T19:00:17.776Z,27.05
2023-03-06T19:03:43.642Z,16.55
2023-03-06T19:07:07.688Z,11.18
2023-03-06T19:10:32.086Z,11.55
2023-03-06T19:13:57.299Z,8.32
2023-03-06T19:17:20.955Z,13.30
2023-03-06T19:20:44.959Z,11.13
2023-03-06T19:24:14.685Z,7.85
2023-03-06T19:27:39.968Z,17.85
2023-03-06T19:31:10.336Z,12.43
2023-03-06T19:34:33.802Z,13.20
2023-03-06T19:37:57.791Z,16.88
2023-03-06T19:41:21.786Z,32.25
2023-03-06T19:44:45.757Z,86.50
2023-03-06T19:48:12.812Z,76.47
2023-03-06T19:51:36.892Z,61.28
2023-03-06T19:55:00.161Z,26.60
2023-03-06T19:58:23.640Z,13.82
2023-03-06T20:01:47.577Z,8.80
2023-03-06T20:05:13.142Z,6.55
2023-03-06T20:08:37.004Z,8.10
2023-03-06T20:12:00.191Z,10.93
2023-03-06T20:15:23.958Z,6.10
2023-03-06T20:18:48.142Z,7.30
2023-03-06T20:22:13.870Z,4.43
2023-03-06T20:25:38.671Z,3.22
2023-03-06T20:29:02.255Z,3.70
2023-03-06T20:32:25.940Z,5.15
2023-03-06T20:35:51.029Z,5.38
2023-03-06T20:39:17.983Z,4.88
2023-03-06T20:42:40.941Z,6.70
2023-03-06T20:46:06.717Z,12.02
2023-03-06T20:49:30.759Z,11.73
2023-03-06T20:52:56.176Z,11.50
2023-03-06T20:56:22.208Z,6.25
2023-03-06T20:59:45.781Z,5.70
2023-03-06T21:03:09.356Z,5.18
2023-03-06T21:06:32.832Z,6.28
2023-03-06T21:09:56.710Z,7.75
2023-03-06T21:13:21.716Z,6.00
2023-03-06T21:16:46.082Z,7.18
2023-03-06T21:20:11.058Z,7.55
2023-03-06T21:23:35.206Z,6.63
2023-03-06T21:26:59.294Z,6.07
2023-03-06T21:30:25.089Z,4.18
2023-03-06T21:33:50.237Z,3.92
2023-03-06T21:37:13.607Z,3.92
2023-03-06T21:40:38.076Z,4.50
2023-03-06T21:44:04.238Z,2.13
2023-03-06T21:47:32.081Z,3.30
2023-03-06T21:50:55.886Z,4.20
2023-03-06T21:54:19.087Z,4.10
2023-03-06T21:57:42.087Z,2.78
2023-03-06T22:01:11.022Z,3.42
2023-03-06T22:04:37.039Z,4.88
2023-03-06T22:08:01.846Z,3.40
2023-03-06T22:11:27.400Z,2.55
2023-03-06T22:14:50.326Z,3.38
2023-03-06T22:18:16.467Z,2.78
2023-03-06T22:21:41.876Z,3.08
2023-03-06T22:25:06.715Z,2.70
2023-03-06T22:28:30.252Z,3.00
2023-03-06T22:31:54.182Z,2.30
2023-03-06T22:35:19.111Z,4.15
2023-03-06T22:38:45.994Z,3.08
2023-03-06T22:42:10.285Z,4.65
2023-03-06T22:45:37.563Z,2.22
2023-03-06T22:49:02.049Z,2.55
2023-03-06T22:52:25.713Z,1.73
2023-03-06T22:55:51.643Z,3.90
2023-03-06T22:59:16.855Z,2.78
2023-03-06T23:02:45.553Z,4.95
2023-03-06T23:06:12.111Z,2.92
2023-03-06T23:09:36.285Z,3.20
2023-03-06T23:13:01.918Z,1.52
2023-03-06T23:16:26.153Z,3.22
2023-03-06T23:19:54.386Z,3.85
2023-03-06T23:23:18.266Z,2.92
2023-03-06T23:26:42.349Z,2.95
2023-03-06T23:30:09.519Z,2.75
2023-03-06T23:33:33.083Z,4.25
2023-03-06T23:36:56.762Z,3.97
2023-03-06T23:40:20.949Z,2.58
2023-03-06T23:43:46.983Z,3.83
2023-03-06T23:47:12.179Z,3.38
2023-03-06T23:50:37.817Z,3.03
2023-03-06T23:54:02.419Z,4.03
2023-03-06T23:57:26.025Z,2.33
